createdAt,value
2022-12-20T00:01:54.180Z,65.89
2022-12-20T00:04:22.489Z,65.79
2022-12-20T00:06:50.612Z,65.56
2022-12-20T00:09:18.745Z,65.64
2022-12-20T00:11:48.181Z,65.43
2022-12-20T00:14:16.338Z,65.84
2022-12-20T00:16:44.579Z,65.15
2022-12-20T00:19:13.292Z,65.33
2022-12-20T00:21:41.422Z,65.59
2022-12-20T00:24:09.592Z,65.78
2022-12-20T00:26:39.005Z,65.80
2022-12-20T00:29:08.520Z,65.80
2022-12-20T00:31:36.663Z,65.09
2022-12-20T00:34:04.890Z,64.98
2022-12-20T00:36:34.269Z,65.62
2022-12-20T00:39:03.099Z,65.39
2022-12-20T00:41:33.882Z,65.40
2022-12-20T00:44:02.550Z,65.30
2022-12-20T00:46:34.292Z,65.51
2022-12-20T00:49:02.781Z,65.21
2022-12-20T00:51:32.761Z,65.52
2022-12-20T00:54:01.069Z,65.28
2022-12-20T00:56:29.237Z,65.04
2022-12-20T00:58:59.886Z,65.42
2022-12-20T01:01:34.406Z,65.90
2022-12-20T01:04:03.259Z,65.44
2022-12-20T01:06:32.483Z,64.46
2022-12-20T01:09:01.584Z,65.56
2022-12-20T01:11:33.287Z,65.66
2022-12-20T01:14:04.990Z,65.81
2022-12-20T01:16:39.319Z,65.48
2022-12-20T01:19:09.655Z,65.31
2022-12-20T01:21:39.764Z,65.99
2022-12-20T01:24:08.181Z,65.83
2022-12-20T01:26:36.295Z,65.78
2022-12-20T01:29:04.406Z,65.38
2022-12-20T01:31:34.753Z,65.57
2022-12-20T01:34:03.158Z,65.45
2022-12-20T01:36:34.462Z,65.66
2022-12-20T01:39:05.416Z,65.98
2022-12-20T01:41:36.101Z,65.79
2022-12-20T01:44:06.709Z,66.08
2022-12-20T01:46:37.273Z,65.68
2022-12-20T01:49:12.139Z,66.38
2022-12-20T01:51:45.606Z,66.30
2022-12-20T01:54:19.335Z,66.16
2022-12-20T01:56:53.546Z,65.82
2022-12-20T01:59:21.918Z,65.81
2022-12-20T02:01:51.680Z,65.79
2022-12-20T02:04:19.900Z,65.59
2022-12-20T02:06:47.900Z,65.45
2022-12-20T02:09:17.343Z,65.31
2022-12-20T02:12:09.775Z,65.47
2022-12-20T02:14:56.243Z,65.61
2022-12-20T02:17:42.373Z,65.58
2022-12-20T02:20:49.831Z,65.32
2022-12-20T02:23:46.037Z,65.63
2022-12-20T02:26:46.814Z,65.04
2022-12-20T02:29:26.227Z,64.83
2022-12-20T02:32:05.984Z,65.08
2022-12-20T02:34:38.675Z,65.33
2022-12-20T02:37:06.857Z,65.26
2022-12-20T02:39:38.535Z,65.04
2022-12-20T02:42:10.523Z,65.09
2022-12-20T02:45:00.315Z,65.75
2022-12-20T02:47:37.389Z,65.19
2022-12-20T02:50:08.242Z,65.39
2022-12-20T02:52:37.587Z,65.59
2022-12-20T02:55:07.969Z,65.09
2022-12-20T02:57:47.134Z,64.95
2022-12-20T03:00:19.213Z,65.48
2022-12-20T03:03:08.252Z,65.07
2022-12-20T03:05:45.188Z,64.81
2022-12-20T03:08:13.468Z,64.83
2022-12-20T03:10:41.641Z,64.69
2022-12-20T03:13:10.133Z,64.48
2022-12-20T03:15:44.435Z,64.66
2022-12-20T03:18:14.401Z,64.31
2022-12-20T03:20:42.574Z,64.50
2022-12-20T03:23:10.907Z,64.59
2022-12-20T03:25:39.279Z,64.47
2022-12-20T03:28:09.177Z,64.62
2022-12-20T03:30:37.723Z,64.43
2022-12-20T03:33:05.954Z,64.60
2022-12-20T03:35:36.882Z,64.82
2022-12-20T03:38:05.227Z,65.04
2022-12-20T03:40:33.341Z,64.55
2022-12-20T03:43:02.291Z,64.31
2022-12-20T03:45:30.648Z,64.23
2022-12-20T03:47:58.810Z,64.17
2022-12-20T03:50:29.615Z,64.30
2022-12-20T03:52:59.138Z,63.80
2022-12-20T03:55:27.828Z,63.93
2022-12-20T03:57:56.235Z,64.02
2022-12-20T04:00:31.962Z,63.87
2022-12-20T04:03:19.455Z,63.52
2022-12-20T04:05:47.629Z,63.70
2022-12-20T04:08:17.193Z,63.61
2022-12-20T04:10:59.364Z,63.57
2022-12-20T04:13:32.650Z,63.57
2022-12-20T04:16:01.595Z,63.14
2022-12-20T04:18:33.559Z,63.67
2022-12-20T04:21:03.000Z,63.61
2022-12-20T04:23:35.129Z,63.10
2022-12-20T04:26:03.920Z,63.50
2022-12-20T04:28:34.258Z,64.06
2022-12-20T04:31:03.832Z,63.92
2022-12-20T04:33:36.402Z,63.86
2022-12-20T04:36:05.419Z,63.44
2022-12-20T04:38:39.017Z,63.50
2022-12-20T04:41:07.536Z,63.82
2022-12-20T04:43:46.706Z,63.65
2022-12-20T04:46:15.987Z,64.24
2022-12-20T04:48:57.248Z,64.29
2022-12-20T04:51:27.003Z,64.28
2022-12-20T04:53:58.935Z,63.75
2022-12-20T04:56:41.291Z,64.30
2022-12-20T04:59:12.576Z,64.18
2022-12-20T05:01:43.399Z,64.03
2022-12-20T05:04:15.991Z,64.12
2022-12-20T05:06:44.142Z,63.99
2022-12-20T05:09:13.826Z,63.94
2022-12-20T05:11:42.002Z,63.92
2022-12-20T05:14:10.787Z,63.72
2022-12-20T05:16:39.059Z,63.74
2022-12-20T05:19:07.962Z,63.92
2022-12-20T05:21:58.399Z,64.02
2022-12-20T05:24:45.708Z,64.15
2022-12-20T05:27:25.686Z,64.20
2022-12-20T05:29:53.921Z,64.19
2022-12-20T05:32:22.714Z,64.12
2022-12-20T05:34:51.322Z,63.83
2022-12-20T05:37:20.910Z,63.87
2022-12-20T05:39:52.567Z,63.84
2022-12-20T05:42:23.661Z,63.76
2022-12-20T05:44:53.903Z,63.88
2022-12-20T05:47:23.420Z,63.35
2022-12-20T05:49:59.532Z,63.71
2022-12-20T05:52:29.044Z,63.49
2022-12-20T05:54:58.771Z,63.58
2022-12-20T05:57:33.019Z,63.66
2022-12-20T06:00:01.679Z,63.54
2022-12-20T06:02:33.509Z,63.65
2022-12-20T06:05:04.761Z,63.59
2022-12-20T06:07:32.922Z,63.83
2022-12-20T06:10:03.155Z,63.42
2022-12-20T06:12:45.254Z,63.14
2022-12-20T06:15:15.709Z,63.53
2022-12-20T06:17:44.025Z,63.63
2022-12-20T06:20:13.467Z,63.51
2022-12-20T06:22:45.276Z,63.22
2022-12-20T06:25:17.432Z,63.97
2022-12-20T06:27:45.772Z,63.58
2022-12-20T06:30:18.158Z,63.80
2022-12-20T06:33:12.522Z,63.88
2022-12-20T06:35:41.577Z,63.86
2022-12-20T06:38:09.779Z,63.68
2022-12-20T06:40:40.210Z,63.72
2022-12-20T06:43:09.865Z,63.68
2022-12-20T06:45:41.959Z,63.30
2022-12-20T06:48:15.840Z,63.76
2022-12-20T06:50:48.059Z,63.72
2022-12-20T06:53:21.683Z,63.64
2022-12-20T06:55:51.901Z,63.79
2022-12-20T06:58:21.021Z,63.64
2022-12-20T07:00:50.225Z,63.69
2022-12-20T07:03:18.513Z,63.66
2022-12-20T07:05:52.067Z,63.51
2022-12-20T07:08:20.341Z,63.31
2022-12-20T07:10:50.310Z,63.25
2022-12-20T07:13:18.488Z,62.92
2022-12-20T07:15:47.032Z,63.12
2022-12-20T07:18:15.421Z,62.83
2022-12-20T07:20:43.463Z,62.65
2022-12-20T07:23:11.657Z,63.11
2022-12-20T07:25:39.840Z,62.95
2022-12-20T07:28:09.616Z,63.07
2022-12-20T07:30:38.505Z,62.94
2022-12-20T07:33:06.692Z,62.79
2022-12-20T07:35:34.795Z,62.47
2022-12-20T07:38:02.910Z,62.81
2022-12-20T07:40:31.874Z,62.79
2022-12-20T07:43:00.012Z,62.65
2022-12-20T07:45:29.525Z,62.55
2022-12-20T07:48:03.255Z,62.90
2022-12-20T07:50:36.703Z,62.86
2022-12-20T07:53:07.638Z,62.76
2022-12-20T07:55:37.182Z,63.11
2022-12-20T07:58:13.717Z,62.62
2022-12-20T08:00:45.187Z,62.75
2022-12-20T08:03:18.210Z,62.82
2022-12-20T08:05:57.329Z,63.08
2022-12-20T08:08:26.194Z,62.61
2022-12-20T08:10:54.440Z,63.12
2022-12-20T08:13:22.627Z,63.01
2022-12-20T08:15:52.128Z,62.66
2022-12-20T08:18:20.304Z,62.53
2022-12-20T08:20:48.486Z,62.73
2022-12-20T08:23:16.754Z,62.40
2022-12-20T08:25:44.891Z,62.62
2022-12-20T08:28:13.002Z,62.25
2022-12-20T08:30:41.177Z,62.55
2022-12-20T08:33:10.835Z,62.67
2022-12-20T08:35:38.897Z,62.87
2022-12-20T08:38:07.905Z,62.46
2022-12-20T08:40:36.123Z,62.71
2022-12-20T08:43:10.024Z,62.60
2022-12-20T08:45:38.517Z,62.65
2022-12-20T08:48:06.771Z,62.08
2022-12-20T08:50:36.299Z,62.27
2022-12-20T08:53:08.435Z,62.24
2022-12-20T08:55:36.889Z,62.38
2022-12-20T08:58:05.018Z,61.98
2022-12-20T09:00:33.916Z,62.13
2022-12-20T09:03:02.224Z,62.05
2022-12-20T09:05:30.393Z,61.98
2022-12-20T09:07:59.895Z,62.21
2022-12-20T09:10:32.927Z,62.19
2022-12-20T09:13:01.063Z,61.92
2022-12-20T09:15:32.342Z,62.20
2022-12-20T09:18:00.639Z,61.96
2022-12-20T09:20:30.473Z,61.91
2022-12-20T09:23:01.920Z,62.31
2022-12-20T09:25:30.494Z,62.04
2022-12-20T09:27:58.904Z,61.88
2022-12-20T09:30:27.032Z,61.97
2022-12-20T09:32:55.172Z,61.88
2022-12-20T09:35:23.659Z,61.52
2022-12-20T09:37:51.691Z,61.88
2022-12-20T09:40:25.287Z,61.45
2022-12-20T09:42:53.790Z,61.30
2022-12-20T09:45:28.702Z,61.48
2022-12-20T09:47:56.897Z,61.62
2022-12-20T09:50:44.727Z,61.20
2022-12-20T09:53:47.732Z,61.11
2022-12-20T09:56:23.585Z,61.28
2022-12-20T09:59:09.147Z,61.18
2022-12-20T10:01:40.067Z,61.26
2022-12-20T10:04:20.356Z,61.65
2022-12-20T10:07:08.353Z,61.25
2022-12-20T10:10:04.436Z,61.04
2022-12-20T10:12:44.469Z,61.13
2022-12-20T10:15:22.095Z,60.98
2022-12-20T10:18:21.200Z,61.36
2022-12-20T10:21:01.603Z,61.39
2022-12-20T10:23:38.278Z,60.78
2022-12-20T10:26:12.266Z,60.84
2022-12-20T10:28:42.111Z,60.61
2022-12-20T10:31:17.409Z,60.52
2022-12-20T10:33:46.687Z,61.10
2022-12-20T10:36:27.475Z,61.29
2022-12-20T10:38:58.228Z,61.12
2022-12-20T10:41:28.672Z,61.05
2022-12-20T10:44:02.488Z,60.93
2022-12-20T10:46:39.717Z,60.97
2022-12-20T10:49:33.867Z,60.63
2022-12-20T10:52:04.942Z,60.47
2022-12-20T10:54:38.595Z,60.98
2022-12-20T10:57:20.105Z,61.05
2022-12-20T10:59:54.959Z,60.58
2022-12-20T11:02:36.993Z,60.69
2022-12-20T11:05:24.411Z,60.61
2022-12-20T11:10:45.908Z,60.74
2022-12-20T11:13:24.224Z,60.15
2022-12-20T11:15:57.768Z,60.69
2022-12-20T11:18:41.287Z,60.28
2022-12-20T11:21:28.337Z,60.16
2022-12-20T11:24:09.740Z,60.57
2022-12-20T11:27:04.377Z,59.83
2022-12-20T11:30:11.150Z,60.41
2022-12-20T11:33:11.101Z,60.04
2022-12-20T11:35:52.168Z,59.77
2022-12-20T11:38:37.565Z,59.72
2022-12-20T11:41:19.565Z,59.92
2022-12-20T11:47:18.333Z,60.22
2022-12-20T11:50:13.830Z,59.74
2022-12-20T11:52:49.663Z,59.64
2022-12-20T11:55:22.734Z,60.12
2022-12-20T11:58:18.109Z,60.26
2022-12-20T12:00:54.830Z,60.58
2022-12-20T12:03:31.289Z,60.30
2022-12-20T12:06:05.749Z,60.47
2022-12-20T12:08:45.291Z,60.47
2022-12-20T12:12:03.929Z,60.18
2022-12-20T12:14:09.547Z,59.81
2022-12-20T12:16:44.677Z,60.59
2022-12-20T12:19:15.675Z,60.38
2022-12-20T12:21:50.418Z,60.48
2022-12-20T12:24:26.222Z,60.72
2022-12-20T12:26:55.389Z,60.53
2022-12-20T12:29:23.809Z,60.85
2022-12-20T12:31:58.516Z,60.14
2022-12-20T12:34:52.362Z,59.67
2022-12-20T12:37:49.793Z,60.05
2022-12-20T12:40:56.485Z,60.13
2022-12-20T12:43:51.228Z,60.43
2022-12-20T12:46:26.082Z,60.56
2022-12-20T12:49:00.746Z,59.87
2022-12-20T12:51:35.771Z,60.08
2022-12-20T12:54:23.081Z,59.98
2022-12-20T12:56:52.603Z,59.95
2022-12-20T12:59:51.822Z,59.50
2022-12-20T13:02:49.915Z,59.79
2022-12-20T13:05:36.540Z,59.52
2022-12-20T13:08:15.727Z,59.92
2022-12-20T13:11:29.665Z,59.56
2022-12-20T13:14:33.343Z,59.05
2022-12-20T13:17:50.600Z,59.72
2022-12-20T13:20:25.829Z,59.57
2022-12-20T13:23:17.681Z,59.19
2022-12-20T13:25:48.720Z,59.81
2022-12-20T13:28:48.924Z,60.15
2022-12-20T13:31:34.466Z,59.90
2022-12-20T13:34:04.076Z,59.78
2022-12-20T13:36:37.271Z,59.49
2022-12-20T13:39:33.220Z,59.76
2022-12-20T13:42:35.087Z,59.98
2022-12-20T13:45:07.969Z,59.92
2022-12-20T13:47:50.856Z,59.37
2022-12-20T13:50:32.014Z,59.45
2022-12-20T13:53:00.467Z,59.43
2022-12-20T13:55:36.552Z,59.24
2022-12-20T13:58:15.036Z,59.59
2022-12-20T14:00:45.545Z,59.82
2022-12-20T14:03:26.440Z,59.42
2022-12-20T14:06:00.435Z,59.38
2022-12-20T14:08:32.886Z,59.68
2022-12-20T14:11:11.219Z,59.56
2022-12-20T14:13:39.794Z,59.42
2022-12-20T14:16:17.717Z,59.77
2022-12-20T14:18:50.170Z,60.19
2022-12-20T14:21:19.911Z,59.80
2022-12-20T14:23:51.642Z,59.89
2022-12-20T14:26:23.867Z,59.92
2022-12-20T14:28:54.284Z,59.46
2022-12-20T14:31:31.220Z,59.53
2022-12-20T14:34:05.578Z,59.32
2022-12-20T14:36:34.440Z,59.39
2022-12-20T14:39:02.637Z,59.55
2022-12-20T14:41:33.812Z,60.18
2022-12-20T14:44:14.178Z,59.44
2022-12-20T14:46:50.453Z,59.59
2022-12-20T14:49:24.951Z,59.48
2022-12-20T14:52:06.796Z,59.40
2022-12-20T14:57:29.303Z,59.64
2022-12-20T15:00:13.648Z,59.77
2022-12-20T15:02:50.660Z,59.69
2022-12-20T15:05:50.429Z,59.15
2022-12-20T15:08:23.132Z,59.44
2022-12-20T15:10:58.360Z,59.72
2022-12-20T15:13:32.392Z,59.61
2022-12-20T15:16:04.465Z,59.58
2022-12-20T15:18:34.425Z,59.03
2022-12-20T15:21:07.689Z,59.15
2022-12-20T15:23:36.056Z,59.41
2022-12-20T15:26:04.250Z,59.05
2022-12-20T15:28:34.187Z,59.46
2022-12-20T15:31:04.680Z,59.35
2022-12-20T15:33:35.687Z,59.67
2022-12-20T15:36:03.796Z,59.45
2022-12-20T15:39:03.215Z,59.21
2022-12-20T15:41:24.342Z,59.27
2022-12-20T15:43:56.926Z,59.18
2022-12-20T15:46:25.598Z,59.51
2022-12-20T15:48:55.166Z,58.95
2022-12-20T15:51:28.882Z,59.10
2022-12-20T15:53:57.000Z,59.43
2022-12-20T15:56:27.124Z,59.19
2022-12-20T15:58:55.792Z,58.97
2022-12-20T16:01:28.722Z,59.58
2022-12-20T16:03:59.806Z,59.30
2022-12-20T16:06:27.837Z,59.74
2022-12-20T16:08:56.655Z,59.01
2022-12-20T16:11:27.602Z,59.50
2022-12-20T16:13:57.198Z,59.33
2022-12-20T16:16:28.618Z,59.46
2022-12-20T16:18:56.723Z,59.04
2022-12-20T16:21:28.826Z,59.38
2022-12-20T16:23:57.027Z,59.70
2022-12-20T16:26:27.278Z,59.19
2022-12-20T16:28:57.175Z,59.07
2022-12-20T16:31:29.150Z,59.61
2022-12-20T16:33:58.033Z,60.04
2022-12-20T16:36:27.978Z,59.96
2022-12-20T16:38:56.331Z,59.54
2022-12-20T16:41:27.458Z,59.66
2022-12-20T16:43:57.639Z,59.23
2022-12-20T16:46:28.203Z,59.87
2022-12-20T16:48:57.833Z,59.73
2022-12-20T16:51:30.499Z,59.44
2022-12-20T16:54:18.598Z,59.70
2022-12-20T16:56:51.025Z,59.65
2022-12-20T16:59:21.924Z,59.59
2022-12-20T17:01:52.793Z,59.41
2022-12-20T17:04:21.806Z,59.51
2022-12-20T17:06:51.780Z,59.47
2022-12-20T17:12:15.017Z,59.43
2022-12-20T17:14:43.213Z,59.22
2022-12-20T17:17:11.302Z,59.81
2022-12-20T17:19:39.459Z,58.97
2022-12-20T17:24:57.999Z,59.23
2022-12-20T17:27:26.032Z,58.80
2022-12-20T17:29:54.094Z,58.78
2022-12-20T17:32:25.877Z,58.88
2022-12-20T17:34:54.310Z,59.29
2022-12-20T17:37:24.649Z,59.24
2022-12-20T17:39:52.736Z,58.63
2022-12-20T17:42:25.530Z,59.19
2022-12-20T17:44:57.034Z,58.37
2022-12-20T17:47:25.120Z,58.93
2022-12-20T17:49:53.467Z,59.13
2022-12-20T17:52:22.848Z,59.30
2022-12-20T17:54:50.916Z,58.58
2022-12-20T17:57:18.920Z,58.85
2022-12-20T17:59:47.144Z,58.89
2022-12-20T18:02:23.679Z,58.83
2022-12-20T18:04:52.321Z,58.92
2022-12-20T18:07:20.487Z,59.19
2022-12-20T18:09:50.988Z,58.44
2022-12-20T18:12:19.430Z,58.35
2022-12-20T18:14:50.758Z,58.98
2022-12-20T18:17:19.135Z,58.56
2022-12-20T18:19:47.434Z,58.98
2022-12-20T18:22:15.876Z,58.99
2022-12-20T18:24:43.953Z,58.78
2022-12-20T18:27:13.701Z,58.95
2022-12-20T18:29:42.481Z,58.58
2022-12-20T18:32:10.686Z,58.80
2022-12-20T18:34:39.158Z,58.92
2022-12-20T18:37:07.295Z,58.91
2022-12-20T18:39:36.565Z,59.64
2022-12-20T18:42:04.925Z,59.02
2022-12-20T18:44:36.292Z,58.83
2022-12-20T18:47:04.700Z,58.34
2022-12-20T18:49:33.183Z,58.75
2022-12-20T18:52:01.882Z,58.99
2022-12-20T18:54:30.764Z,59.01
2022-12-20T18:56:59.198Z,59.02
2022-12-20T18:59:27.340Z,59.00
2022-12-20T19:01:57.460Z,58.53
2022-12-20T19:04:25.713Z,58.91
2022-12-20T19:06:54.164Z,58.79
2022-12-20T19:09:22.518Z,58.63
2022-12-20T19:11:56.571Z,58.85
2022-12-20T19:14:25.899Z,58.54
2022-12-20T19:16:53.993Z,58.64
2022-12-20T19:19:23.520Z,58.45
2022-12-20T19:21:51.970Z,59.33
2022-12-20T19:24:20.025Z,58.86
2022-12-20T19:26:48.285Z,59.21
2022-12-20T19:29:16.311Z,59.09
2022-12-20T19:31:44.517Z,59.14
2022-12-20T19:34:15.090Z,59.50
2022-12-20T19:36:48.324Z,59.94
2022-12-20T19:39:19.985Z,60.10
2022-12-20T19:42:13.885Z,59.59
2022-12-20T19:44:37.222Z,59.86
2022-12-20T19:47:05.457Z,60.14
2022-12-20T19:49:35.428Z,59.45
2022-12-20T19:52:05.687Z,59.97
2022-12-20T19:54:33.927Z,59.60
2022-12-20T19:57:02.032Z,59.96
2022-12-20T19:59:31.243Z,59.73
2022-12-20T20:01:59.516Z,59.55
2022-12-20T20:04:27.829Z,59.74
2022-12-20T20:06:56.353Z,59.85
2022-12-20T20:09:25.918Z,60.09
2022-12-20T20:11:54.011Z,59.62
2022-12-20T20:14:22.417Z,59.51
2022-12-20T20:16:50.468Z,59.65
2022-12-20T20:19:18.859Z,59.11
2022-12-20T20:21:48.690Z,59.70
2022-12-20T20:24:17.187Z,59.76
2022-12-20T20:26:46.546Z,60.05
2022-12-20T20:29:14.679Z,59.87
2022-12-20T20:31:42.800Z,59.90
2022-12-20T20:34:10.964Z,60.11
2022-12-20T20:36:39.359Z,60.30
2022-12-20T20:39:07.450Z,60.64
2022-12-20T20:41:35.550Z,60.19
2022-12-20T20:44:05.436Z,60.59
2022-12-20T20:46:33.538Z,61.25
2022-12-20T20:49:04.838Z,61.09
2022-12-20T20:51:32.917Z,61.14
2022-12-20T20:54:00.945Z,61.73
2022-12-20T20:56:28.917Z,61.52
2022-12-20T20:59:05.023Z,60.79
2022-12-20T21:01:36.652Z,61.14
2022-12-20T21:04:06.932Z,60.76
2022-12-20T21:06:40.974Z,60.99
2022-12-20T21:09:10.038Z,60.65
2022-12-20T21:11:38.361Z,60.25
2022-12-20T21:14:09.458Z,60.79
2022-12-20T21:16:41.350Z,60.59
2022-12-20T21:19:11.319Z,60.05
2022-12-20T21:21:39.467Z,60.35
2022-12-20T21:24:08.774Z,60.06
2022-12-20T21:26:36.868Z,59.84
2022-12-20T21:29:05.423Z,60.36
2022-12-20T21:31:33.717Z,60.22
2022-12-20T21:34:03.278Z,60.25
2022-12-20T21:36:31.298Z,59.71
2022-12-20T21:39:00.381Z,71.33
2022-12-20T21:41:30.474Z,57.63
2022-12-20T21:43:59.951Z,55.57
2022-12-20T21:46:31.592Z,55.86
2022-12-20T21:49:00.333Z,56.74
2022-12-20T21:51:30.975Z,56.98
2022-12-20T21:54:01.465Z,57.68
2022-12-20T21:56:32.169Z,58.50
2022-12-20T21:59:00.808Z,58.92
2022-12-20T22:01:30.101Z,58.51
2022-12-20T22:04:01.452Z,59.05
2022-12-20T22:06:31.605Z,58.94
2022-12-20T22:09:00.421Z,58.99
2022-12-20T22:11:29.354Z,59.54
2022-12-20T22:13:58.631Z,59.05
2022-12-20T22:16:31.786Z,59.61
2022-12-20T22:19:01.607Z,59.14
2022-12-20T22:21:33.668Z,59.84
2022-12-20T22:24:02.871Z,58.96
2022-12-20T22:26:33.344Z,59.18
2022-12-20T22:29:04.436Z,59.05
2022-12-20T22:31:33.578Z,58.83
2022-12-20T22:34:01.960Z,59.51
2022-12-20T22:36:31.884Z,59.12
2022-12-20T22:39:00.138Z,58.74
2022-12-20T22:41:30.585Z,59.14
2022-12-20T22:44:00.431Z,59.38
2022-12-20T22:46:30.157Z,59.20
2022-12-20T22:48:58.603Z,59.39
2022-12-20T22:51:30.686Z,59.15
2022-12-20T22:54:01.051Z,59.35
2022-12-20T22:56:29.877Z,59.82
2022-12-20T22:58:58.094Z,59.52
2022-12-20T23:01:26.446Z,59.58
2022-12-20T23:03:54.709Z,59.80
2022-12-20T23:06:23.224Z,59.92
2022-12-20T23:08:51.348Z,59.57
2022-12-20T23:11:41.281Z,60.11
2022-12-20T23:14:42.406Z,60.15
2022-12-20T23:17:11.694Z,59.80
2022-12-20T23:19:53.743Z,59.79
2022-12-20T23:22:39.422Z,59.98
2022-12-20T23:25:11.510Z,59.90
2022-12-20T23:27:43.018Z,59.86
2022-12-20T23:30:14.142Z,60.04
2022-12-20T23:32:44.301Z,60.34
2022-12-20T23:35:13.699Z,60.17
2022-12-20T23:37:42.107Z,60.73
2022-12-20T23:40:12.720Z,60.11
2022-12-20T23:42:43.121Z,59.99
2022-12-20T23:45:12.164Z,60.37
2022-12-20T23:47:40.212Z,60.44
2022-12-20T23:50:09.692Z,60.52
2022-12-20T23:52:37.836Z,59.80
2022-12-20T23:55:06.969Z,60.58
2022-12-20T23:57:35.081Z,60.53
